createdAt,value
2018-09-25T00:00:15.803Z,78.10
2018-09-25T00:04:24.414Z,79.60
2018-09-25T00:08:33.120Z,79.00
2018-09-25T00:12:42.007Z,79.00
2018-09-25T00:16:50.883Z,78.10
2018-09-25T00:20:59.683Z,79.30
2018-09-25T00:25:08.406Z,79.70
2018-09-25T00:29:17.158Z,80.40
2018-09-25T00:33:25.664Z,80.40
2018-09-25T00:37:34.298Z,79.00
2018-09-25T00:41:42.872Z,79.20
2018-09-25T00:45:51.511Z,80.60
2018-09-25T00:50:00.298Z,78.80
2018-09-25T00:54:08.794Z,79.70
2018-09-25T00:58:17.477Z,78.60
2018-09-25T01:02:26.207Z,78.20
2018-09-25T01:06:35.899Z,80.00
2018-09-25T01:10:44.730Z,78.70
2018-09-25T01:14:53.463Z,79.30
2018-09-25T01:19:02.259Z,80.20
2018-09-25T01:23:11.072Z,80.20
2018-09-25T01:27:19.724Z,79.70
2018-09-25T01:31:28.579Z,80.00
2018-09-25T01:35:37.204Z,80.80
2018-09-25T01:39:45.895Z,79.60
2018-09-25T01:43:54.459Z,79.80
2018-09-25T01:48:03.064Z,78.60
2018-09-25T01:52:11.811Z,78.40
2018-09-25T01:56:20.543Z,79.70
2018-09-25T02:00:29.169Z,81.20
2018-09-25T02:04:37.863Z,81.50
2018-09-25T02:08:47.072Z,80.20
2018-09-25T02:12:55.763Z,80.50
2018-09-25T02:17:04.334Z,80.30
2018-09-25T02:21:12.979Z,80.20
2018-09-25T02:25:21.757Z,81.90
2018-09-25T02:29:30.387Z,80.90
2018-09-25T02:33:39.355Z,80.00
2018-09-25T02:37:48.097Z,80.70
2018-09-25T02:41:56.832Z,79.40
2018-09-25T02:46:05.584Z,79.00
2018-09-25T02:50:14.415Z,80.10
2018-09-25T02:54:23.822Z,79.80
2018-09-25T02:58:32.306Z,80.50
2018-09-25T03:02:40.845Z,79.50
2018-09-25T03:06:49.696Z,80.40
2018-09-25T03:10:58.311Z,78.30
2018-09-25T03:15:06.938Z,79.30
2018-09-25T03:19:15.582Z,81.80
2018-09-25T03:23:24.192Z,79.00
2018-09-25T03:27:32.824Z,80.30
2018-09-25T03:31:41.474Z,79.20
2018-09-25T03:35:50.200Z,79.50
2018-09-25T03:39:58.875Z,80.20
2018-09-25T03:44:07.782Z,80.30
2018-09-25T03:48:16.567Z,78.60
2018-09-25T03:52:25.363Z,79.90
2018-09-25T03:56:33.992Z,79.50
2018-09-25T04:00:42.826Z,79.40
2018-09-25T04:04:51.495Z,78.90
2018-09-25T04:09:00.248Z,78.90
2018-09-25T04:13:08.930Z,79.50
2018-09-25T04:17:17.476Z,81.80
2018-09-25T04:21:26.159Z,78.80
2018-09-25T04:25:34.765Z,81.20
2018-09-25T04:29:43.474Z,80.70
2018-09-25T04:33:52.175Z,78.70
2018-09-25T04:38:01.873Z,80.60
2018-09-25T04:42:10.609Z,80.30
2018-09-25T04:46:19.263Z,80.60
2018-09-25T04:50:27.876Z,81.40
2018-09-25T04:54:36.596Z,81.00
2018-09-25T04:58:45.600Z,81.50
2018-09-25T05:02:54.358Z,81.10
2018-09-25T05:07:03.118Z,83.10
2018-09-25T05:11:11.911Z,81.90
2018-09-25T05:15:20.757Z,81.10
2018-09-25T05:19:29.438Z,80.30
2018-09-25T05:23:38.129Z,80.00
2018-09-25T05:27:46.771Z,82.50
2018-09-25T05:31:55.436Z,81.60
2018-09-25T05:36:04.056Z,80.00
2018-09-25T05:40:12.723Z,81.90
2018-09-25T05:44:21.407Z,80.70
2018-09-25T05:48:30.256Z,79.90
2018-09-25T05:52:38.984Z,81.80
2018-09-25T05:56:47.677Z,80.00
2018-09-25T06:00:56.279Z,79.70
2018-09-25T06:05:04.748Z,79.80
2018-09-25T06:09:20.278Z,81.30
2018-09-25T06:13:29.083Z,85.70
2018-09-25T06:17:37.754Z,80.20
2018-09-25T06:21:46.368Z,81.10
2018-09-25T06:25:54.977Z,80.80
2018-09-25T06:30:03.752Z,80.80
2018-09-25T06:34:12.387Z,82.90
2018-09-25T06:38:21.179Z,84.20
2018-09-25T06:42:29.807Z,82.40
2018-09-25T06:46:38.443Z,89.20
2018-09-25T06:50:47.018Z,84.70
2018-09-25T06:54:55.726Z,83.70
2018-09-25T06:59:04.346Z,88.90
2018-09-25T07:03:12.959Z,88.70
2018-09-25T07:07:21.560Z,81.30
2018-09-25T07:11:30.283Z,79.10
2018-09-25T07:15:38.921Z,81.40
2018-09-25T07:19:47.872Z,77.80
2018-09-25T07:23:56.560Z,80.50
2018-09-25T07:28:05.093Z,77.20
2018-09-25T07:32:13.742Z,81.20
2018-09-25T07:36:22.356Z,87.10
2018-09-25T07:40:31.111Z,77.10
2018-09-25T07:44:39.724Z,76.90
2018-09-25T07:48:48.405Z,76.20
2018-09-25T07:52:57.306Z,82.60
2018-09-25T07:57:05.814Z,78.70
2018-09-25T08:01:14.647Z,75.50
2018-09-25T08:05:23.328Z,76.30
2018-09-25T08:09:31.913Z,75.50
2018-09-25T08:13:40.620Z,75.00
2018-09-25T08:17:49.252Z,78.80
2018-09-25T08:21:58.093Z,74.30
2018-09-25T08:26:06.694Z,74.20
2018-09-25T08:30:15.254Z,74.40
2018-09-25T08:34:23.884Z,73.10
2018-09-25T08:38:32.549Z,73.10
2018-09-25T08:42:41.142Z,72.20
2018-09-25T08:46:50.179Z,71.90
2018-09-25T08:50:58.836Z,71.80
2018-09-25T08:55:07.556Z,72.00
2018-09-25T08:59:16.971Z,71.60
2018-09-25T09:03:25.743Z,71.20
2018-09-25T09:07:34.369Z,71.20
2018-09-25T09:11:43.063Z,71.40
2018-09-25T09:15:51.687Z,72.10
2018-09-25T09:20:00.444Z,71.70
2018-09-25T09:24:09.004Z,70.40
2018-09-25T09:28:17.670Z,71.60
2018-09-25T09:32:26.294Z,71.40
2018-09-25T09:36:34.972Z,71.60
2018-09-25T09:40:43.579Z,70.10
2018-09-25T09:44:52.187Z,72.20
2018-09-25T09:49:00.976Z,72.30
2018-09-25T09:53:09.743Z,70.80
2018-09-25T09:57:18.592Z,73.00
2018-09-25T10:01:27.275Z,74.30
2018-09-25T10:05:36.086Z,72.70
2018-09-25T10:09:44.956Z,74.80
2018-09-25T10:13:53.726Z,74.00
2018-09-25T10:18:02.531Z,73.80
2018-09-25T10:22:11.346Z,74.20
2018-09-25T10:26:20.075Z,75.10
2018-09-25T10:30:28.760Z,75.00
2018-09-25T10:34:37.268Z,75.40
2018-09-25T10:38:45.955Z,75.10
2018-09-25T10:42:54.656Z,73.00
2018-09-25T10:47:03.303Z,74.00
2018-09-25T10:51:11.926Z,73.70
2018-09-25T10:55:20.619Z,72.70
2018-09-25T10:59:29.435Z,73.40
2018-09-25T11:03:38.169Z,73.40
2018-09-25T11:07:46.901Z,72.70
2018-09-25T11:11:55.685Z,73.70
2018-09-25T11:16:04.447Z,73.00
2018-09-25T11:20:13.212Z,73.40
2018-09-25T11:24:22.019Z,72.30
2018-09-25T11:28:30.877Z,72.00
2018-09-25T11:32:39.516Z,71.50
2018-09-25T11:36:48.345Z,70.10
2018-09-25T11:40:57.125Z,70.60
2018-09-25T11:45:05.621Z,69.80
2018-09-25T11:49:14.195Z,69.50
2018-09-25T11:53:22.823Z,69.60
2018-09-25T11:57:31.474Z,67.00
2018-09-25T12:01:40.198Z,71.30
2018-09-25T12:05:48.836Z,69.70
2018-09-25T12:09:57.568Z,71.20
2018-09-25T12:14:06.381Z,70.20
2018-09-25T12:18:15.048Z,70.50
2018-09-25T12:22:23.689Z,70.60
2018-09-25T12:26:32.300Z,71.40
2018-09-25T12:30:40.911Z,68.50
2018-09-25T12:34:49.582Z,70.00
2018-09-25T12:38:58.322Z,71.80
2018-09-25T12:43:07.099Z,69.30
2018-09-25T12:47:15.807Z,69.10
2018-09-25T12:51:24.577Z,70.30
2018-09-25T12:55:33.195Z,66.10
2018-09-25T12:59:41.863Z,71.60
2018-09-25T13:03:50.584Z,69.40
2018-09-25T13:07:59.115Z,65.70
2018-09-25T13:12:07.981Z,69.70
2018-09-25T13:16:16.571Z,70.60
2018-09-25T13:20:25.323Z,69.40
2018-09-25T13:24:34.061Z,67.00
2018-09-25T13:28:42.707Z,70.80
2018-09-25T13:32:51.488Z,69.10
2018-09-25T13:37:00.125Z,68.10
2018-09-25T13:41:08.876Z,69.90
2018-09-25T13:45:17.532Z,65.40
2018-09-25T13:49:26.379Z,70.50
2018-09-25T13:53:35.036Z,70.20
2018-09-25T13:57:43.686Z,69.40
2018-09-25T14:01:52.432Z,69.80
2018-09-25T14:06:01.171Z,68.60
2018-09-25T14:10:10.009Z,70.20
2018-09-25T14:14:18.649Z,70.60
2018-09-25T14:18:27.254Z,69.40
2018-09-25T14:22:36.180Z,70.60
2018-09-25T14:26:44.956Z,68.90
2018-09-25T14:30:53.741Z,67.90
2018-09-25T14:35:02.403Z,67.40
2018-09-25T14:39:12.783Z,69.10
2018-09-25T14:43:21.500Z,69.40
2018-09-25T14:47:30.121Z,68.20
2018-09-25T14:51:38.771Z,67.70
2018-09-25T14:55:47.450Z,66.20
2018-09-25T14:59:56.259Z,67.40
2018-09-25T15:04:05.052Z,69.90
2018-09-25T15:08:13.761Z,66.60
2018-09-25T15:12:22.491Z,67.10
2018-09-25T15:16:31.121Z,62.50
2018-09-25T15:20:39.875Z,63.80
2018-09-25T15:24:48.633Z,69.20
2018-09-25T15:28:57.308Z,67.70
2018-09-25T15:33:06.003Z,67.70
2018-09-25T15:37:14.738Z,66.50
2018-09-25T15:41:23.584Z,71.60
2018-09-25T15:45:32.545Z,73.50
2018-09-25T15:49:41.141Z,72.70
2018-09-25T15:53:49.881Z,69.00
2018-09-25T15:57:59.436Z,69.70
2018-09-25T16:02:08.232Z,68.10
2018-09-25T16:06:16.960Z,66.40
2018-09-25T16:10:25.820Z,70.50
2018-09-25T16:14:34.602Z,68.00
2018-09-25T16:18:43.169Z,68.20
2018-09-25T16:22:51.846Z,68.10
2018-09-25T16:27:00.379Z,69.40
2018-09-25T16:31:09.192Z,69.00
2018-09-25T16:35:17.843Z,69.40
2018-09-25T16:39:26.536Z,67.30
2018-09-25T16:43:35.376Z,70.40
2018-09-25T16:47:44.228Z,71.00
2018-09-25T16:51:53.067Z,71.00
2018-09-25T16:56:01.715Z,69.20
2018-09-25T17:00:10.416Z,70.90
2018-09-25T17:04:19.250Z,71.30
2018-09-25T17:08:27.999Z,69.60
2018-09-25T17:12:36.751Z,70.80
2018-09-25T17:16:45.547Z,70.80
2018-09-25T17:20:54.328Z,69.90
2018-09-25T17:25:03.012Z,68.80
2018-09-25T17:29:11.788Z,69.60
2018-09-25T17:33:20.484Z,69.90
2018-09-25T17:37:29.224Z,70.10
2018-09-25T17:41:37.910Z,70.70
2018-09-25T17:45:46.718Z,68.60
2018-09-25T17:49:55.467Z,71.50
2018-09-25T17:54:03.995Z,71.80
2018-09-25T17:58:12.922Z,72.00
2018-09-25T18:02:21.708Z,72.00
2018-09-25T18:06:30.520Z,72.00
2018-09-25T18:10:39.181Z,72.30
2018-09-25T18:14:47.796Z,73.10
2018-09-25T18:18:56.580Z,72.50
2018-09-25T18:23:05.366Z,72.40
2018-09-25T18:27:14.032Z,72.50
2018-09-25T18:31:22.725Z,73.40
2018-09-25T18:35:31.443Z,72.70
2018-09-25T18:39:40.306Z,72.60
2018-09-25T18:43:48.909Z,72.80
2018-09-25T18:47:57.556Z,72.70
2018-09-25T18:52:06.075Z,73.40
2018-09-25T18:56:14.696Z,72.80
2018-09-25T19:00:23.531Z,72.60
2018-09-25T19:04:32.074Z,73.10
2018-09-25T19:08:40.946Z,73.00
2018-09-25T19:12:49.715Z,73.20
2018-09-25T19:16:58.566Z,73.60
2018-09-25T19:21:07.459Z,73.70
2018-09-25T19:25:16.139Z,73.30
2018-09-25T19:29:24.665Z,73.20
2018-09-25T19:33:33.256Z,73.40
2018-09-25T19:37:42.114Z,73.30
2018-09-25T19:41:50.932Z,73.60
2018-09-25T19:45:59.699Z,73.50
2018-09-25T19:50:09.419Z,73.90
2018-09-25T19:54:18.062Z,73.50
2018-09-25T19:58:26.916Z,73.10
2018-09-25T20:02:35.535Z,73.60
2018-09-25T20:06:44.215Z,75.20
2018-09-25T20:10:52.853Z,73.20
2018-09-25T20:15:01.676Z,73.60
2018-09-25T20:19:10.417Z,73.50
2018-09-25T20:23:19.237Z,74.60
2018-09-25T20:27:27.917Z,74.50
2018-09-25T20:31:36.825Z,73.70
2018-09-25T20:35:45.560Z,74.10
2018-09-25T20:39:54.211Z,73.70
2018-09-25T20:44:02.983Z,73.80
2018-09-25T20:48:11.559Z,74.10
2018-09-25T20:52:20.253Z,74.10
2018-09-25T20:56:29.086Z,74.20
2018-09-25T21:00:37.794Z,74.00
2018-09-25T21:04:46.524Z,74.70
2018-09-25T21:08:55.336Z,74.00
2018-09-25T21:13:04.128Z,74.20
2018-09-25T21:17:13.095Z,74.90
2018-09-25T21:21:22.025Z,74.90
2018-09-25T21:25:30.758Z,74.80
2018-09-25T21:29:39.596Z,74.70
2018-09-25T21:33:48.292Z,74.20
2018-09-25T21:37:57.008Z,73.90
2018-09-25T21:42:05.847Z,74.50
2018-09-25T21:46:14.608Z,74.30
2018-09-25T21:50:23.331Z,74.10
2018-09-25T21:54:32.140Z,73.90
2018-09-25T21:58:40.952Z,74.50
2018-09-25T22:02:49.607Z,75.00
2018-09-25T22:06:58.296Z,74.10
2018-09-25T22:11:06.999Z,74.30
2018-09-25T22:15:15.693Z,74.50
2018-09-25T22:19:25.131Z,74.30
2018-09-25T22:23:33.879Z,75.60
2018-09-25T22:27:42.351Z,74.90
2018-09-25T22:31:51.684Z,74.70
2018-09-25T22:36:00.227Z,74.30
2018-09-25T22:40:08.994Z,74.20
2018-09-25T22:44:20.571Z,74.80
2018-09-25T22:48:29.299Z,74.70
2018-09-25T22:52:38.119Z,74.80
2018-09-25T22:56:46.731Z,74.30
2018-09-25T23:00:55.443Z,74.70
2018-09-25T23:05:04.269Z,74.50
2018-09-25T23:09:14.219Z,74.40
2018-09-25T23:13:22.880Z,75.20
2018-09-25T23:17:31.727Z,75.40
2018-09-25T23:21:40.329Z,75.00
2018-09-25T23:25:48.985Z,74.40
2018-09-25T23:29:57.691Z,75.90
2018-09-25T23:34:06.327Z,74.50
2018-09-25T23:38:15.021Z,75.10
2018-09-25T23:42:24.582Z,74.80
2018-09-25T23:46:33.323Z,74.80
2018-09-25T23:50:54.653Z,74.50
2018-09-25T23:56:00.796Z,74.50
